Sunday, October 21, 2018, 7:11 PM EDT
Back to Local

KHYA, Hyannis Barnstable Boardmn

Location: West Yarmouth, MA, United States Lat: 41.667
Local Time: 7:11 PM EDT (23:11 GMT) Lon: -70.267
Time Zone: US/Eastern Elev: 52 ft

Show me the last for .
Show Decoded

2018-10-21 17:56 METAR KHYA 212156Z 33008G22KT 10SM SCT049 06/M03 A2987 RMK AO2 SLP117 T00611028
                 =
2018-10-21 16:56 METAR KHYA 212056Z 34013G21KT 10SM BKN048 07/M01 A2983 RMK AO2 PK WND 34026/2002
                 SLP102 T00721011 53034 =
2018-10-21 15:56 METAR KHYA 211956Z 34017G24KT 10SM SCT045 08/M01 A2979 RMK AO2 PK WND 35028/1902
                 SLP088 T00831006 =
2018-10-21 14:56 METAR KHYA 211856Z 34016G25KT 10SM SCT042 08/M01 A2975 RMK AO2 PK WND 35030/1815
                 SLP075 T00831006 =
2018-10-21 13:56 METAR KHYA 211756Z 34014G26KT 10SM OVC037 08/01 A2973 RMK AO2 PK WND 32030/1702
                 SLP068 60015 T00830006 10094 20072 51019 =
2018-10-21 12:56 METAR KHYA 211656Z 34017G26KT 10SM OVC034 08/02 A2971 RMK AO2 PK WND 32028/1655
                 RAE35 SLP060 P0000 T00780017 =
2018-10-21 12:19 METAR KHYA 211619Z 33013G24KT 10SM -RA OVC030 07/03 A2971 RMK AO2 P0000
                 T00720033 =
2018-10-21 12:12 METAR KHYA 211612Z 32014G23KT 10SM -RA BKN029 OVC033 07/03 A2971 RMK AO2 P0000
                 T00720033 =
2018-10-21 11:56 METAR KHYA 211556Z 35012G26KT 10SM -RA SCT027 BKN034 OVC047 07/03 A2970 RMK AO2
                 PK WND 32031/1501 SLP059 P0001 T00720033 =
2018-10-21 10:56 METAR KHYA 211456Z 33016G25KT 10SM -RA BKN022 BKN030 OVC060 08/04 A2967 RMK AO2
                 PK WND 34029/1444 SLP049 P0000 60014 T00780044 51020 =
2018-10-21 10:43 METAR KHYA 211443Z 34015G28KT 10SM -RA BKN021 BKN028 OVC055 08/05 A2967 RMK AO2
                 PK WND 35029/1405 P0000 T00780050 =
2018-10-21 10:36 METAR KHYA 211436Z 35013G28KT 10SM -RA SCT023 BKN030 OVC055 08/05 A2967 RMK AO2
                 PK WND 35029/1405 P0000 T00780050 =
2018-10-21 09:56 METAR KHYA 211356Z 34016G25KT 8SM -RA BKN018 BKN027 OVC037 08/06 A2966 RMK AO2
                 PK WND 36028/1304 SLP044 P0004 T00780056 =
2018-10-21 08:56 METAR KHYA 211256Z 01016G29KT 7SM -RA BKN027 OVC036 09/06 A2964 RMK AO2 PK WND
                 35029/1246 SLP037 P0010 T00890056 =
2018-10-21 08:48 METAR KHYA 211248Z 01016G29KT 7SM -RA BKN027 OVC036 09/06 A2963 RMK AO2 PK WND
                 35029/1246 P0009 T00890061 =
2018-10-21 08:00 METAR KHYA 211200Z 36010KT 2SM RA BR BKN030 OVC037 09/07 A2961 RMK AO2 P0001
                 T00940072 =
2018-10-21 07:56 METAR KHYA 211156Z 35006KT 3SM RA FEW022 OVC028 09/07 A2961 RMK AO2 SLP029 P0021
                 60022 70022 T00940067 10117 20039 53025 =
2018-10-21 07:43 METAR KHYA 211143Z VRB05KT 2 1/2SM +RA FEW022 BKN028 OVC037 10/07 A2961 RMK AO2
                 PRESRR P0015 T01000072 =
2018-10-21 06:56 METAR KHYA 211056Z 35006KT 10SM -RA FEW016 BKN033 OVC045 11/08 A2958 RMK AO2
                 RAB29 SLP018 P0001 T01060078 =
2018-10-21 05:56 METAR KHYA 210956Z 36008KT 10SM BKN048 11/07 A2954 RMK AO2 SLP004 T01060072 =
2018-10-21 04:56 METAR KHYA 210856Z AUTO 36003KT 10SM FEW110 06/05 A2954 RMK AO2 SLP004 T00610050
                 55004 =
2018-10-21 03:56 METAR KHYA 210756Z AUTO 00000KT 10SM CLR 05/04 A2954 RMK AO2 SLP003 T00500039 =
2018-10-21 02:56 METAR KHYA 210656Z AUTO 00000KT 10SM CLR 04/04 A2953 RMK AO2 SLP999 T00440039 =
2018-10-21 01:56 METAR KHYA 210556Z AUTO 01003KT 9SM CLR 05/04 A2955 RMK AO2 SLP008 T00500044
                 10117 20050 58014 =
2018-10-21 00:56 METAR KHYA 210456Z AUTO 00000KT 8SM BKN085 07/06 A2957 RMK AO2 SLP014 T00670061
                 401780067 =
2018-10-20 23:56 METAR KHYA 210356Z AUTO 04003KT 7SM OVC085 08/07 A2958 RMK AO2 SLP017 T00780072
                 =
2018-10-20 22:56 METAR KHYA 210256Z AUTO 00000KT 10SM BKN090 08/08 A2959 RMK AO2 SLP021 T00830078
                 53004 =
2018-10-20 21:56 METAR KHYA 210156Z 26003KT 10SM CLR 09/08 A2958 RMK AO2 SLP019 T00890078 =
2018-10-20 20:56 METAR KHYA 210056Z 27005KT 10SM CLR 10/09 A2957 RMK AO2 SLP015 T01000089 =
2018-10-20 19:56 METAR KHYA 202356Z 00000KT 10SM CLR 11/09 A2958 RMK AO2 SLP017 T01060094 10172
                 20106 53009 =

Support USWX by starting your Amazon purchase here.